Time;durP1;ratioP1;P1;durP2;ratioP2;P2;SDS_P1;SDS_P2;PMS_P1;PMS_P2;Temp;Humidity;BMP_temperature;BMP_pressure;BME280_temperature;BME280_humidity;BME280_pressure;Samples;Min_cycle;Max_cycle;Signal;HPM_P1;HPM_P2
2023/10/05 00:03:32;;;;;;;15.10;7.80;;;;;;;;;;109347;1251;59695;-80
2023/10/05 00:06:05;;;;;;;15.10;8.50;;;;;;;;;;109233;1253;59294;-80
2023/10/05 00:08:35;;;;;;;13.70;7.90;;;;;;;;;;109209;1252;59463;-80
2023/10/05 00:11:06;;;;;;;21.90;8.70;;;;;;;;;;109208;1252;59570;-80
2023/10/05 00:13:34;;;;;;;15.10;8.50;;;;;;;;;;109177;1252;60428;-80
2023/10/05 00:16:04;;;;;;;10.60;6.80;;;;;;;;;;109192;1252;59624;-79
2023/10/05 00:18:33;;;;;;;15.20;8.20;;;;;;;;;;109201;1252;59703;-80
2023/10/05 00:21:00;;;;;;;14.80;8.40;;;;;;;;;;109209;1252;59041;-80
2023/10/05 00:23:27;;;;;;;13.40;8.10;;;;;;;;;;109188;1252;59272;-80
2023/10/05 00:25:55;;;;;;;13.60;7.60;;;;;;;;;;109204;1252;61457;-80
2023/10/05 00:28:24;;;;;;;13.90;7.40;;;;;;;;;;109274;1253;59500;-80
2023/10/05 00:30:54;;;;;;;17.00;8.20;;;;;;;;;;109204;1252;59732;-80
2023/10/05 00:33:20;;;;;;;15.80;8.90;;;;;;;;;;109203;1252;59126;-80
2023/10/05 00:35:47;;;;;;;13.20;8.60;;;;;;;;;;109237;1252;59171;-80
2023/10/05 00:38:16;;;;;;;15.50;7.90;;;;;;;;;;109280;1252;60383;-79
2023/10/05 00:40:51;;;;;;;12.20;7.90;;;;;;;;;;109202;1252;59454;-80
2023/10/05 00:45:46;;;;;;;14.60;8.60;;;;;;;;;;109221;1251;59649;-80
2023/10/05 00:48:34;;;;;;;16.20;7.80;;;;;;;;;;109399;1251;59074;-80
2023/10/05 00:51:06;;;;;;;13.50;7.10;;;;;;;;;;109237;1251;63124;-80
2023/10/05 00:53:32;;;;;;;11.70;8.30;;;;;;;;;;109369;1251;59135;-80
2023/10/05 00:56:11;;;;;;;13.90;6.40;;;;;;;;;;109342;1251;60728;-80
2023/10/05 00:58:46;;;;;;;12.40;5.80;;;;;;;;;;109335;1251;59036;-80
2023/10/05 01:01:16;;;;;;;9.20;5.90;;;;;;;;;;109381;1251;59449;-80
2023/10/05 01:06:54;;;;;;;17.00;6.60;;;;;;;;;;109212;1252;59072;-80
2023/10/05 01:12:15;;;;;;;12.90;7.50;;;;;;;;;;109108;1252;163611;-80
2023/10/05 01:14:58;;;;;;;14.30;6.50;;;;;;;;;;109209;1252;59353;-80
2023/10/05 01:17:25;;;;;;;13.40;6.40;;;;;;;;;;109241;1252;62023;-79
2023/10/05 01:19:58;;;;;;;13.40;6.50;;;;;;;;;;109266;1252;59689;-80
2023/10/05 01:22:32;;;;;;;11.20;6.40;;;;;;;;;;109202;1253;60779;-80
2023/10/05 01:25:01;;;;;;;10.90;6.80;;;;;;;;;;109202;1252;58989;-80
2023/10/05 01:27:29;;;;;;;9.60;5.90;;;;;;;;;;109406;1252;58888;-80
2023/10/05 01:29:56;;;;;;;10.10;6.20;;;;;;;;;;109250;1252;62131;-80
2023/10/05 01:32:23;;;;;;;11.10;6.40;;;;;;;;;;109187;1253;59688;-80
2023/10/05 01:34:50;;;;;;;13.20;6.60;;;;;;;;;;109221;1252;59532;-80
2023/10/05 01:37:18;;;;;;;11.20;6.80;;;;;;;;;;109240;1252;59751;-80
2023/10/05 01:39:44;;;;;;;16.60;9.30;;;;;;;;;;109186;1252;58990;-80
2023/10/05 01:42:14;;;;;;;10.80;6.60;;;;;;;;;;109242;1252;62667;-80
2023/10/05 01:44:41;;;;;;;12.10;7.50;;;;;;;;;;109211;1252;59743;-80
2023/10/05 01:47:07;;;;;;;10.10;6.40;;;;;;;;;;109305;1251;60387;-80
2023/10/05 01:49:35;;;;;;;9.90;6.20;;;;;;;;;;109344;1251;59608;-80
2023/10/05 01:52:02;;;;;;;11.10;6.30;;;;;;;;;;109392;1251;59046;-80
2023/10/05 01:54:28;;;;;;;13.00;6.30;;;;;;;;;;109396;1251;61170;-80
2023/10/05 01:56:55;;;;;;;11.40;6.40;;;;;;;;;;109422;1251;59070;-80
2023/10/05 01:59:22;;;;;;;12.90;7.00;;;;;;;;;;109360;1251;59630;-80
2023/10/05 02:01:48;;;;;;;12.80;6.20;;;;;;;;;;109360;1251;59632;-80
2023/10/05 02:04:15;;;;;;;10.10;6.70;;;;;;;;;;109354;1252;59142;-80
2023/10/05 02:06:49;;;;;;;12.20;7.20;;;;;;;;;;109252;1252;61608;-80
2023/10/05 02:09:19;;;;;;;12.40;6.60;;;;;;;;;;109228;1252;59127;-80
2023/10/05 02:11:47;;;;;;;12.00;6.50;;;;;;;;;;109189;1253;59079;-80
2023/10/05 02:14:15;;;;;;;15.20;8.00;;;;;;;;;;109203;1252;59055;-79
2023/10/05 02:16:42;;;;;;;15.10;6.80;;;;;;;;;;109178;1252;59667;-79
2023/10/05 02:19:09;;;;;;;10.80;6.30;;;;;;;;;;109146;1252;61783;-80
2023/10/05 02:21:38;;;;;;;12.50;7.20;;;;;;;;;;109209;1252;59256;-80
2023/10/05 02:24:16;;;;;;;13.80;6.70;;;;;;;;;;109220;1252;59916;-80
2023/10/05 02:27:09;;;;;;;11.90;6.20;;;;;;;;;;109203;1252;59083;-80
2023/10/05 02:29:31;;;;;;;11.60;6.00;;;;;;;;;;109196;1252;59062;-80
2023/10/05 02:34:29;;;;;;;15.30;7.60;;;;;;;;;;109224;1252;59049;-80
2023/10/05 02:36:56;;;;;;;13.80;8.30;;;;;;;;;;109223;1252;59780;-80
2023/10/05 02:39:23;;;;;;;17.10;8.00;;;;;;;;;;109210;1252;59233;-80
2023/10/05 02:41:51;;;;;;;12.20;6.70;;;;;;;;;;109225;1252;59328;-80
2023/10/05 02:44:19;;;;;;;10.80;5.70;;;;;;;;;;109238;1252;61909;-80
2023/10/05 02:46:49;;;;;;;12.10;5.80;;;;;;;;;;109304;1251;58935;-80
2023/10/05 02:49:15;;;;;;;11.60;6.10;;;;;;;;;;109369;1251;60598;-80
2023/10/05 02:51:43;;;;;;;13.10;7.10;;;;;;;;;;109374;1251;59068;-80
2023/10/05 02:54:10;;;;;;;13.60;6.70;;;;;;;;;;109352;1251;59742;-80
2023/10/05 02:56:40;;;;;;;12.70;6.20;;;;;;;;;;109358;1251;61763;-80
2023/10/05 02:59:14;;;;;;;12.70;6.70;;;;;;;;;;109384;1251;59502;-80
2023/10/05 03:01:42;;;;;;;15.40;7.50;;;;;;;;;;109376;1251;60095;-80
2023/10/05 03:04:18;;;;;;;12.20;6.10;;;;;;;;;;109319;1251;59035;-80
2023/10/05 03:06:52;;;;;;;11.20;6.00;;;;;;;;;;109176;1252;59591;-80
2023/10/05 03:09:21;;;;;;;15.40;7.10;;;;;;;;;;109214;1252;61607;-79
2023/10/05 03:11:49;;;;;;;13.30;7.00;;;;;;;;;;109211;1252;59631;-80
2023/10/05 03:14:17;;;;;;;10.90;6.70;;;;;;;;;;109213;1252;61148;-80
2023/10/05 03:16:43;;;;;;;11.80;7.00;;;;;;;;;;109187;1253;59558;-80
2023/10/05 03:19:14;;;;;;;12.70;6.70;;;;;;;;;;109236;1252;59485;-80
2023/10/05 03:21:40;;;;;;;9.60;6.30;;;;;;;;;;109181;1252;63046;-80
2023/10/05 03:24:13;;;;;;;11.80;6.00;;;;;;;;;;109205;1252;59633;-80
2023/10/05 03:26:40;;;;;;;8.20;5.90;;;;;;;;;;109201;1252;60373;-80
2023/10/05 03:29:08;;;;;;;10.60;7.00;;;;;;;;;;109199;1252;59171;-80
2023/10/05 03:31:38;;;;;;;10.60;6.00;;;;;;;;;;109231;1252;59329;-80
2023/10/05 03:34:07;;;;;;;13.50;6.50;;;;;;;;;;109221;1252;61685;-80
2023/10/05 03:36:33;;;;;;;12.00;5.90;;;;;;;;;;109267;1252;59170;-79
2023/10/05 03:39:03;;;;;;;12.10;6.70;;;;;;;;;;109217;1253;59738;-80
2023/10/05 03:41:30;;;;;;;13.60;6.00;;;;;;;;;;109218;1253;59274;-80
2023/10/05 03:44:01;;;;;;;9.60;6.30;;;;;;;;;;109224;1252;59602;-79
2023/10/05 03:46:27;;;;;;;12.40;5.40;;;;;;;;;;109281;1251;62954;-80
2023/10/05 03:49:00;;;;;;;10.80;6.00;;;;;;;;;;109226;1253;59007;-80
2023/10/05 03:51:28;;;;;;;12.00;6.10;;;;;;;;;;109364;1251;59146;-80
2023/10/05 03:53:55;;;;;;;13.40;7.00;;;;;;;;;;109371;1251;59222;-80
2023/10/05 03:56:23;;;;;;;14.60;6.70;;;;;;;;;;109231;1251;58985;-80
2023/10/05 03:58:52;;;;;;;12.20;6.40;;;;;;;;;;109360;1251;61859;-80
2023/10/05 04:01:19;;;;;;;13.90;5.80;;;;;;;;;;109308;1251;59493;-80
2023/10/05 04:03:49;;;;;;;13.60;6.40;;;;;;;;;;109367;1251;60700;-80
2023/10/05 04:06:24;;;;;;;12.40;6.40;;;;;;;;;;109155;1254;59433;-80
2023/10/05 04:08:54;;;;;;;15.00;7.30;;;;;;;;;;109233;1252;59073;-80
2023/10/05 04:11:21;;;;;;;13.00;6.10;;;;;;;;;;109232;1252;61956;-80
2023/10/05 04:13:50;;;;;;;10.20;6.40;;;;;;;;;;109232;1252;59016;-80
2023/10/05 04:16:26;;;;;;;12.90;6.80;;;;;;;;;;109196;1253;60841;-79
2023/10/05 04:18:53;;;;;;;11.70;6.20;;;;;;;;;;109177;1253;59022;-80
2023/10/05 04:21:23;;;;;;;12.90;7.50;;;;;;;;;;109200;1253;59077;-80
2023/10/05 04:23:49;;;;;;;17.20;8.30;;;;;;;;;;109198;1252;61944;-80
2023/10/05 04:26:20;;;;;;;12.00;5.90;;;;;;;;;;109233;1252;59665;-79
2023/10/05 04:28:52;;;;;;;12.60;5.90;;;;;;;;;;109213;1252;59862;-80
2023/10/05 04:31:22;;;;;;;12.40;5.80;;;;;;;;;;109194;1253;59616;-80
2023/10/05 04:33:50;;;;;;;11.50;6.70;;;;;;;;;;109191;1253;59378;-80
2023/10/05 04:36:18;;;;;;;8.50;4.70;;;;;;;;;;109213;1253;63034;-80
2023/10/05 04:38:44;;;;;;;9.60;4.90;;;;;;;;;;109261;1252;59660;-80
2023/10/05 04:41:14;;;;;;;9.50;4.70;;;;;;;;;;109196;1252;59553;-80
2023/10/05 04:43:41;;;;;;;9.50;5.10;;;;;;;;;;109209;1252;59581;-79
2023/10/05 04:46:09;;;;;;;12.60;6.40;;;;;;;;;;109291;1251;59507;-80
2023/10/05 04:48:38;;;;;;;18.60;6.80;;;;;;;;;;109335;1251;62828;-79
2023/10/05 04:51:07;;;;;;;14.70;6.40;;;;;;;;;;109349;1251;59631;-80
2023/10/05 04:53:38;;;;;;;11.40;6.80;;;;;;;;;;109292;1251;59593;-80
2023/10/05 04:56:14;;;;;;;11.10;6.40;;;;;;;;;;109315;1251;59449;-79
2023/10/05 04:58:53;;;;;;;16.00;7.90;;;;;;;;;;109366;1251;59101;-79
2023/10/05 05:01:28;;;;;;;10.90;6.20;;;;;;;;;;109343;1251;61998;-80
2023/10/05 05:03:56;;;;;;;13.80;6.20;;;;;;;;;;109288;1252;59672;-80
2023/10/05 05:06:25;;;;;;;12.60;5.80;;;;;;;;;;109208;1252;59684;-80
2023/10/05 05:08:53;;;;;;;10.00;5.60;;;;;;;;;;109187;1253;59711;-80
2023/10/05 05:11:19;;;;;;;15.60;6.50;;;;;;;;;;109233;1252;59027;-80
2023/10/05 05:13:46;;;;;;;13.70;7.00;;;;;;;;;;109245;1252;59320;-80
2023/10/05 05:16:14;;;;;;;14.70;6.90;;;;;;;;;;109212;1251;59702;-80
2023/10/05 05:18:42;;;;;;;14.60;7.60;;;;;;;;;;109232;1253;59373;-79
2023/10/05 05:21:08;;;;;;;16.60;7.10;;;;;;;;;;109201;1252;59612;-80
2023/10/05 05:23:35;;;;;;;11.30;7.80;;;;;;;;;;109190;1252;59649;-80
2023/10/05 05:26:03;;;;;;;13.70;7.80;;;;;;;;;;109198;1253;62581;-80
2023/10/05 05:28:30;;;;;;;14.10;6.80;;;;;;;;;;109133;1252;59794;-80
2023/10/05 05:31:04;;;;;;;13.00;6.30;;;;;;;;;;109102;1253;59635;-79
2023/10/05 05:33:31;;;;;;;13.60;7.60;;;;;;;;;;109274;1252;59004;-80
2023/10/05 05:35:58;;;;;;;13.80;6.60;;;;;;;;;;109205;1253;59629;-80
2023/10/05 05:38:26;;;;;;;14.40;8.50;;;;;;;;;;109156;1252;62118;-80
2023/10/05 05:40:53;;;;;;;14.60;8.00;;;;;;;;;;109158;1253;59669;-80
2023/10/05 05:43:19;;;;;;;19.80;8.60;;;;;;;;;;109238;1253;60594;-80
2023/10/05 05:45:47;;;;;;;17.10;8.20;;;;;;;;;;109250;1251;59433;-80
2023/10/05 05:48:14;;;;;;;11.10;6.20;;;;;;;;;;109187;1253;59834;-80
2023/10/05 05:50:42;;;;;;;13.50;6.20;;;;;;;;;;109167;1253;59606;-80
2023/10/05 05:53:11;;;;;;;9.10;6.10;;;;;;;;;;109287;1251;59112;-80
2023/10/05 05:55:41;;;;;;;;;;;;;;;;;;109212;1253;59776;-80
2023/10/05 05:58:07;;;;;;;10.50;6.50;;;;;;;;;;109227;1253;59721;-80
2023/10/05 06:00:34;;;;;;;11.90;6.50;;;;;;;;;;109247;1251;59365;-80
2023/10/05 06:03:00;;;;;;;12.80;6.40;;;;;;;;;;109104;1252;61905;-80
2023/10/05 06:05:27;;;;;;;18.00;8.30;;;;;;;;;;109200;1253;59487;-80
2023/10/05 06:07:55;;;;;;;12.60;6.80;;;;;;;;;;109200;1253;58966;-80
2023/10/05 06:10:28;;;;;;;24.70;9.80;;;;;;;;;;109436;1252;59339;-80
2023/10/05 06:12:54;;;;;;;19.50;8.70;;;;;;;;;;109403;1253;58870;-80
2023/10/05 06:15:21;;;;;;;16.30;7.50;;;;;;;;;;109267;1252;59016;-79
2023/10/05 06:17:47;;;;;;;13.10;7.20;;;;;;;;;;109206;1253;59119;-80
2023/10/05 06:20:14;;;;;;;16.70;8.20;;;;;;;;;;109370;1253;59330;-80
2023/10/05 06:22:49;;;;;;;16.50;8.80;;;;;;;;;;109369;1253;59420;-80
2023/10/05 06:25:15;;;;;;;16.80;7.40;;;;;;;;;;109250;1253;59747;-80
2023/10/05 06:27:45;;;;;;;14.80;7.60;;;;;;;;;;109223;1252;59341;-80
2023/10/05 06:30:11;;;;;;;19.90;8.80;;;;;;;;;;109256;1253;59064;-80
2023/10/05 06:32:38;;;;;;;16.10;7.80;;;;;;;;;;109201;1253;59615;-80
2023/10/05 06:35:08;;;;;;;17.70;7.80;;;;;;;;;;109226;1253;59442;-80
2023/10/05 06:37:35;;;;;;;15.30;7.70;;;;;;;;;;109198;1253;59852;-80
2023/10/05 06:40:01;;;;;;;14.90;7.40;;;;;;;;;;109257;1252;61959;-80
2023/10/05 06:42:28;;;;;;;11.40;7.30;;;;;;;;;;109196;1253;59648;-80
2023/10/05 06:44:55;;;;;;;11.40;6.90;;;;;;;;;;109176;1253;58998;-80
2023/10/05 06:47:36;;;;;;;11.80;6.80;;;;;;;;;;109141;1252;59715;-80
2023/10/05 06:50:09;;;;;;;13.30;6.30;;;;;;;;;;109121;1252;59733;-80
2023/10/05 06:52:55;;;;;;;13.60;7.40;;;;;;;;;;109218;1256;61164;-80
2023/10/05 06:55:21;;;;;;;13.20;6.80;;;;;;;;;;109239;1253;59088;-80
2023/10/05 06:57:50;;;;;;;11.60;6.20;;;;;;;;;;109221;1253;60796;-80
2023/10/05 07:00:20;;;;;;;10.90;7.00;;;;;;;;;;109223;1253;59675;-80
2023/10/05 07:02:46;;;;;;;11.00;6.80;;;;;;;;;;109197;1253;59191;-81
2023/10/05 07:05:13;;;;;;;13.50;7.90;;;;;;;;;;109196;1253;62677;-80
2023/10/05 07:07:42;;;;;;;13.60;7.10;;;;;;;;;;109221;1253;59575;-81
2023/10/05 07:10:08;;;;;;;;;;;;;;;;;;109203;1253;60891;-80
2023/10/05 07:12:35;;;;;;;12.90;6.10;;;;;;;;;;109217;1252;59669;-80
2023/10/05 07:15:02;;;;;;;10.90;5.90;;;;;;;;;;109211;1252;59766;-81
2023/10/05 07:17:29;;;;;;;9.70;5.50;;;;;;;;;;109194;1254;60385;-81
2023/10/05 07:19:56;;;;;;;13.50;7.70;;;;;;;;;;109173;1254;59751;-80
2023/10/05 07:22:22;;;;;;;10.90;6.80;;;;;;;;;;109179;1253;59536;-81
2023/10/05 07:24:49;;;;;;;11.80;7.30;;;;;;;;;;109320;1253;59142;-80
2023/10/05 07:27:16;;;;;;;11.70;7.20;;;;;;;;;;109238;1253;59362;-81
2023/10/05 07:29:45;;;;;;;9.90;6.60;;;;;;;;;;109230;1253;60573;-81
2023/10/05 07:32:15;;;;;;;17.40;7.50;;;;;;;;;;109174;1253;60515;-81
2023/10/05 07:34:41;;;;;;;11.00;6.70;;;;;;;;;;109219;1253;59637;-81
2023/10/05 07:37:10;;;;;;;15.90;6.80;;;;;;;;;;109215;1253;59803;-81
2023/10/05 07:39:40;;;;;;;13.00;6.80;;;;;;;;;;109217;1252;59452;-81
2023/10/05 07:42:10;;;;;;;12.00;6.10;;;;;;;;;;109221;1254;61880;-81
2023/10/05 07:44:37;;;;;;;10.10;6.00;;;;;;;;;;109234;1252;59654;-81
2023/10/05 07:47:04;;;;;;;11.90;6.70;;;;;;;;;;109246;1252;59737;-81
2023/10/05 07:49:31;;;;;;;17.50;7.00;;;;;;;;;;109159;1253;59284;-81
2023/10/05 07:51:57;;;;;;;14.70;7.00;;;;;;;;;;109168;1253;60489;-81
2023/10/05 07:54:24;;;;;;;13.30;7.40;;;;;;;;;;109227;1252;62856;-80
2023/10/05 07:56:52;;;;;;;11.30;7.30;;;;;;;;;;109138;1257;59250;-81
2023/10/05 07:59:18;;;;;;;11.70;7.10;;;;;;;;;;109204;1253;59063;-81
2023/10/05 08:01:45;;;;;;;12.60;8.30;;;;;;;;;;109155;1256;59055;-82
2023/10/05 08:04:11;;;;;;;11.00;7.00;;;;;;;;;;109199;1253;59661;-81
2023/10/05 08:06:44;;;;;;;10.10;5.50;;;;;;;;;;109197;1253;59103;-82
2023/10/05 08:09:15;;;;;;;9.30;5.10;;;;;;;;;;109228;1253;59807;-81
2023/10/05 08:11:42;;;;;;;8.80;5.00;;;;;;;;;;109190;1253;59933;-82
2023/10/05 08:14:08;;;;;;;15.30;6.80;;;;;;;;;;109251;1253;59103;-82
2023/10/05 08:16:34;;;;;;;9.60;4.30;;;;;;;;;;109225;1252;59277;-81
2023/10/05 08:19:01;;;;;;;8.00;3.50;;;;;;;;;;109224;1253;59608;-82
2023/10/05 08:21:28;;;;;;;7.60;3.90;;;;;;;;;;109183;1253;59728;-81
2023/10/05 08:23:54;;;;;;;82.90;11.30;;;;;;;;;;109182;1253;59785;-81
2023/10/05 08:26:21;;;;;;;15.80;5.40;;;;;;;;;;109159;1253;59709;-82
2023/10/05 08:28:49;;;;;;;12.60;3.70;;;;;;;;;;109206;1254;59331;-81
2023/10/05 08:31:22;;;;;;;28.70;5.40;;;;;;;;;;109215;1253;61894;-81
2023/10/05 08:33:50;;;;;;;12.20;4.00;;;;;;;;;;109254;1253;59234;-82
2023/10/05 08:36:17;;;;;;;21.20;3.70;;;;;;;;;;109255;1253;59082;-82
2023/10/05 08:38:48;;;;;;;11.20;5.30;;;;;;;;;;109212;1252;59322;-82
2023/10/05 08:41:24;;;;;;;4.10;2.30;;;;;;;;;;109180;1252;59405;-82
2023/10/05 08:43:50;;;;;;;5.30;2.90;;;;;;;;;;109225;1253;63024;-82
2023/10/05 08:46:17;;;;;;;6.00;2.90;;;;;;;;;;109304;1254;59059;-82
2023/10/05 08:48:46;;;;;;;6.30;3.00;;;;;;;;;;109246;1253;59179;-81
2023/10/05 08:51:13;;;;;;;10.30;3.50;;;;;;;;;;109195;1253;59696;-82
2023/10/05 08:53:48;;;;;;;14.80;4.00;;;;;;;;;;109159;1253;59276;-82
2023/10/05 08:56:15;;;;;;;8.90;3.00;;;;;;;;;;109241;1252;60417;-81
2023/10/05 08:58:42;;;;;;;28.40;4.60;;;;;;;;;;109272;1254;59400;-82
2023/10/05 09:01:20;;;;;;;15.80;4.40;;;;;;;;;;109201;1253;59987;-82
2023/10/05 09:03:53;;;;;;;7.00;3.00;;;;;;;;;;109228;1253;59534;-81
2023/10/05 09:06:24;;;;;;;6.30;3.00;;;;;;;;;;109272;1253;59551;-82
2023/10/05 09:09:06;;;;;;;5.40;2.80;;;;;;;;;;109230;1252;61295;-81
2023/10/05 09:11:33;;;;;;;6.50;2.60;;;;;;;;;;109183;1253;59653;-82
2023/10/05 09:14:18;;;;;;;8.80;4.80;;;;;;;;;;109166;1253;60419;-81
2023/10/05 09:16:45;;;;;;;10.00;3.80;;;;;;;;;;109216;1253;59199;-81
2023/10/05 09:19:13;;;;;;;22.20;3.00;;;;;;;;;;109225;1253;59044;-81
2023/10/05 09:21:50;;;;;;;5.80;2.50;;;;;;;;;;109272;1253;61771;-81
2023/10/05 09:24:20;;;;;;;4.80;2.50;;;;;;;;;;109197;1253;59715;-82
2023/10/05 09:26:53;;;;;;;4.40;2.30;;;;;;;;;;109171;1254;60429;-81
2023/10/05 09:29:20;;;;;;;5.50;2.90;;;;;;;;;;109207;1252;59367;-81
2023/10/05 09:31:57;;;;;;;5.90;2.60;;;;;;;;;;109165;1252;59268;-81
2023/10/05 09:34:33;;;;;;;5.80;2.30;;;;;;;;;;109205;1252;61949;-81
2023/10/05 09:37:05;;;;;;;15.40;2.70;;;;;;;;;;109207;1253;59705;-81
2023/10/05 09:39:35;;;;;;;21.00;3.20;;;;;;;;;;109311;1253;60473;-81
2023/10/05 09:42:01;;;;;;;5.00;1.90;;;;;;;;;;109362;1253;59066;-82
2023/10/05 09:44:30;;;;;;;6.90;2.40;;;;;;;;;;109434;1256;58892;-82
2023/10/05 09:46:59;;;;;;;3.80;1.90;;;;;;;;;;109282;1253;60657;-81
2023/10/05 09:49:27;;;;;;;3.80;1.60;;;;;;;;;;109164;1254;59685;-81
2023/10/05 09:51:54;;;;;;;5.20;2.30;;;;;;;;;;109046;1254;59782;-82
2023/10/05 09:54:25;;;;;;;6.40;2.40;;;;;;;;;;109185;1254;59709;-83
2023/10/05 09:56:51;;;;;;;10.30;3.10;;;;;;;;;;109231;1252;59244;-82
2023/10/05 09:59:18;;;;;;;8.30;2.10;;;;;;;;;;109269;1253;63004;-82
2023/10/05 10:01:47;;;;;;;4.10;2.20;;;;;;;;;;109289;1253;59439;-82
2023/10/05 10:04:24;;;;;;;4.70;2.10;;;;;;;;;;109193;1253;60118;-82
2023/10/05 10:06:53;;;;;;;6.10;2.70;;;;;;;;;;109310;1254;59646;-82
2023/10/05 10:09:26;;;;;;;;;;;;;;;;;;109185;1253;59043;-82
2023/10/05 10:11:57;;;;;;;4.20;2.10;;;;;;;;;;109201;1253;62014;-81
2023/10/05 10:14:26;;;;;;;5.60;2.30;;;;;;;;;;109262;1253;59113;-81
2023/10/05 10:17:01;;;;;;;4.90;2.60;;;;;;;;;;109205;1253;59824;-81
2023/10/05 10:19:28;;;;;;;4.80;1.70;;;;;;;;;;109125;1252;59253;-81
2023/10/05 10:22:11;;;;;;;5.30;2.70;;;;;;;;;;109228;1253;59231;-81
2023/10/05 10:24:38;;;;;;;4.10;1.80;;;;;;;;;;109305;1253;61981;-81
2023/10/05 10:27:07;;;;;;;4.40;2.60;;;;;;;;;;109236;1253;59253;-81
2023/10/05 10:29:44;;;;;;;2.60;1.20;;;;;;;;;;109199;1253;59906;-82
2023/10/05 10:32:20;;;;;;;6.00;1.90;;;;;;;;;;109162;1253;59186;-81
2023/10/05 10:35:07;;;;;;;2.60;1.30;;;;;;;;;;109145;1251;59170;-81
2023/10/05 10:37:49;;;;;;;6.20;1.40;;;;;;;;;;109200;1253;62664;-81
2023/10/05 10:42:53;;;;;;;21.50;2.60;;;;;;;;;;109161;1253;60884;-81
2023/10/05 10:45:29;;;;;;;5.80;1.90;;;;;;;;;;109191;1253;59681;-82
2023/10/05 10:47:56;;;;;;;3.40;1.90;;;;;;;;;;109233;1253;59661;-82
2023/10/05 10:50:30;;;;;;;7.60;2.00;;;;;;;;;;109138;1253;61574;-82
2023/10/05 10:52:58;;;;;;;4.50;1.90;;;;;;;;;;109187;1253;59464;-82
2023/10/05 10:55:31;;;;;;;4.60;1.90;;;;;;;;;;109186;1253;60495;-82
2023/10/05 10:58:00;;;;;;;8.50;1.90;;;;;;;;;;109231;1253;59507;-81
2023/10/05 11:00:54;;;;;;;5.30;2.20;;;;;;;;;;109190;1256;59003;-81
2023/10/05 11:03:24;;;;;;;3.30;1.70;;;;;;;;;;109206;1256;61708;-82
2023/10/05 11:05:52;;;;;;;5.20;1.70;;;;;;;;;;109087;1256;59735;-81
2023/10/05 11:08:21;;;;;;;4.50;1.70;;;;;;;;;;109164;1253;59829;-82
2023/10/05 11:10:54;;;;;;;7.60;2.60;;;;;;;;;;109077;1254;60823;-81
2023/10/05 11:13:23;;;;;;;26.20;3.30;;;;;;;;;;109223;1253;59048;-81
2023/10/05 11:16:03;;;;;;;9.00;2.00;;;;;;;;;;109312;1253;63003;-81
2023/10/05 11:18:39;;;;;;;5.40;1.40;;;;;;;;;;109206;1254;59651;-81
2023/10/05 11:21:08;;;;;;;64.00;6.10;;;;;;;;;;109205;1253;59719;-81
2023/10/05 11:23:47;;;;;;;4.20;1.90;;;;;;;;;;109246;1254;59590;-81
2023/10/05 11:26:26;;;;;;;7.50;2.50;;;;;;;;;;109209;1254;59082;-81
2023/10/05 11:28:52;;;;;;;4.10;2.10;;;;;;;;;;109242;1257;60697;-81
2023/10/05 11:31:23;;;;;;;5.50;2.00;;;;;;;;;;109138;1254;59318;-81
2023/10/05 11:33:53;;;;;;;3.70;2.00;;;;;;;;;;109216;1254;59616;-81
2023/10/05 11:36:22;;;;;;;4.30;2.20;;;;;;;;;;109209;1255;59756;-81
2023/10/05 11:38:48;;;;;;;5.80;2.20;;;;;;;;;;109244;1253;59037;-81
2023/10/05 11:41:23;;;;;;;12.20;2.80;;;;;;;;;;109175;1254;59290;-82
2023/10/05 11:43:53;;;;;;;3.60;1.90;;;;;;;;;;109246;1253;59070;-82
2023/10/05 11:46:29;;;;;;;6.00;1.90;;;;;;;;;;109217;1253;60798;-81
2023/10/05 11:48:56;;;;;;;7.80;2.60;;;;;;;;;;109203;1252;59700;-82
2023/10/05 11:51:42;;;;;;;9.00;2.00;;;;;;;;;;109190;1253;59771;-82
2023/10/05 11:54:11;;;;;;;7.10;1.70;;;;;;;;;;109202;1254;60911;-82
2023/10/05 11:56:40;;;;;;;14.50;2.10;;;;;;;;;;109215;1254;59110;-82
2023/10/05 11:59:08;;;;;;;5.30;2.10;;;;;;;;;;109186;1254;60394;-82
2023/10/05 12:01:39;;;;;;;4.70;2.10;;;;;;;;;;109196;1257;59045;-82
2023/10/05 12:04:08;;;;;;;3.90;2.10;;;;;;;;;;109254;1255;59251;-82
2023/10/05 12:06:37;;;;;;;5.00;2.00;;;;;;;;;;109209;1253;61596;-82
2023/10/05 12:09:07;;;;;;;3.70;1.90;;;;;;;;;;109234;1254;59165;-82
2023/10/05 12:11:33;;;;;;;3.00;1.80;;;;;;;;;;109231;1256;60504;-82
2023/10/05 12:14:00;;;;;;;6.40;2.20;;;;;;;;;;109239;1253;59053;-81
2023/10/05 12:16:27;;;;;;;5.20;2.40;;;;;;;;;;109237;1252;59150;-82
2023/10/05 12:18:58;;;;;;;7.10;2.10;;;;;;;;;;109192;1254;62852;-82
2023/10/05 12:21:24;;;;;;;5.30;1.90;;;;;;;;;;109231;1254;59178;-82
2023/10/05 12:23:50;;;;;;;3.90;2.30;;;;;;;;;;109259;1251;59557;-82
2023/10/05 12:26:17;;;;;;;3.10;1.80;;;;;;;;;;109251;1254;59728;-82
2023/10/05 12:28:43;;;;;;;5.40;2.70;;;;;;;;;;109226;1254;59121;-82
2023/10/05 12:31:10;;;;;;;4.70;2.00;;;;;;;;;;109195;1254;59718;-81
2023/10/05 12:33:39;;;;;;;5.40;2.60;;;;;;;;;;109195;1252;60258;-82
2023/10/05 12:36:08;;;;;;;4.10;2.30;;;;;;;;;;109252;1251;60736;-84
2023/10/05 12:38:36;;;;;;;9.70;2.20;;;;;;;;;;109204;1254;59541;-83
2023/10/05 12:41:14;;;;;;;14.00;8.80;;;;;;;;;;109225;1253;59355;-84
2023/10/05 12:43:42;;;;;;;6.30;3.20;;;;;;;;;;109244;1253;61968;-83
2023/10/05 12:46:10;;;;;;;4.70;3.30;;;;;;;;;;109236;1253;59043;-83
2023/10/05 12:48:38;;;;;;;30.40;4.20;;;;;;;;;;109247;1253;59694;-84
2023/10/05 12:51:05;;;;;;;3.40;2.60;;;;;;;;;;109233;1254;59072;-83
2023/10/05 12:53:33;;;;;;;6.80;2.00;;;;;;;;;;109164;1254;59690;-83
2023/10/05 12:56:01;;;;;;;4.30;1.70;;;;;;;;;;109232;1254;62574;-82
2023/10/05 12:58:28;;;;;;;;;;;;;;;;;;109238;1253;59076;-82
2023/10/05 13:00:54;;;;;;;;;;;;;;;;;;109258;1254;59393;-83
2023/10/05 13:03:24;;;;;;;;;;;;;;;;;;109172;1254;59372;-83
2023/10/05 13:05:51;;;;;;;;;;;;;;;;;;109227;1252;59269;-84
2023/10/05 13:08:19;;;;;;;;;;;;;;;;;;109187;1254;63022;-84
2023/10/05 13:10:48;;;;;;;;;;;;;;;;;;109238;1253;59292;-85
2023/10/05 13:13:17;;;;;;;;;;;;;;;;;;109188;1251;165020;-82
2023/10/05 13:15:43;;;;;;;;;;;;;;;;;;109206;1254;59710;-81
2023/10/05 13:18:19;;;;;;;;;;;;;;;;;;109304;1253;58954;-82
2023/10/05 13:20:45;;;;;;;;;;;;;;;;;;109235;1254;61318;-81
2023/10/05 13:23:13;;;;;;;;;;;;;;;;;;109184;1253;59172;-81
2023/10/05 13:25:40;;;;;;;;;;;;;;;;;;109249;1254;59391;-82
2023/10/05 13:28:06;;;;;;;;;;;;;;;;;;109208;1254;59101;-82
2023/10/05 13:30:40;;;;;;;;;;;;;;;;;;109257;1253;59806;-82
2023/10/05 13:33:13;;;;;;;;;;;;;;;;;;109306;1251;62023;-81
2023/10/05 13:35:41;;;;;;;;;;;;;;;;;;109311;1251;59021;-82
2023/10/05 13:38:08;;;;;;;;;;;;;;;;;;109224;1254;59053;-82
2023/10/05 13:40:35;;;;;;;;;;;;;;;;;;109258;1253;59609;-82
2023/10/05 13:43:01;;;;;;;;;;;;;;;;;;109258;1254;59017;-82
2023/10/05 13:45:28;;;;;;;;;;;;;;;;;;109258;1253;62591;-82
2023/10/05 13:47:55;;;;;;;;;;;;;;;;;;109244;1253;59910;-82
2023/10/05 13:50:23;;;;;;;;;;;;;;;;;;109267;1253;59612;-81
2023/10/05 13:52:51;;;;;;;;;;;;;;;;;;109243;1253;59164;-81
2023/10/05 13:55:20;;;;;;;;;;;;;;;;;;109276;1253;59552;-81
2023/10/05 13:57:47;;;;;;;;;;;;;;;;;;109238;1252;61229;-82
2023/10/05 14:00:19;;;;;;;;;;;;;;;;;;109359;1253;59267;-81
2023/10/05 14:02:49;;;;;;;;;;;;;;;;;;109192;1253;60360;-81
2023/10/05 14:05:15;;;;;;;;;;;;;;;;;;109189;1253;59900;-81
2023/10/05 14:07:44;;;;;;;;;;;;;;;;;;109234;1254;59710;-81
2023/10/05 14:10:10;;;;;;;;;;;;;;;;;;109206;1253;62993;-81
2023/10/05 14:12:39;;;;;;;;;;;;;;;;;;109262;1254;58939;-81
2023/10/05 14:15:08;;;;;;;;;;;;;;;;;;109210;1253;60437;-82
2023/10/05 14:17:35;;;;;;;;;;;;;;;;;;109200;1254;59071;-81
2023/10/05 14:20:01;;;;;;;;;;;;;;;;;;109297;1253;59675;-82
2023/10/05 14:22:29;;;;;;;;;;;;;;;;;;109404;1253;59025;-82
2023/10/05 14:24:55;;;;;;;;;;;;;;;;;;109350;1257;59021;-81
2023/10/05 14:27:29;;;;;;;;;;;;;;;;;;109349;1254;59161;-81
2023/10/05 14:29:55;;;;;;;;;;;;;;;;;;109340;1253;59132;-82
2023/10/05 14:32:23;;;;;;;;;;;;;;;;;;109461;1252;59269;-82
2023/10/05 14:34:52;;;;;;;;;;;;;;;;;;109399;1253;60355;-82
2023/10/05 14:37:18;;;;;;;;;;;;;;;;;;109201;1253;59072;-81
2023/10/05 14:39:45;;;;;;;;;;;;;;;;;;109244;1253;59448;-81
2023/10/05 14:42:11;;;;;;;;;;;;;;;;;;109241;1254;59314;-81
2023/10/05 14:44:40;;;;;;;;;;;;;;;;;;109234;1253;58990;-81
2023/10/05 14:47:12;;;;;;;;;;;;;;;;;;109366;1251;60537;-81
2023/10/05 14:49:38;;;;;;;;;;;;;;;;;;109271;1252;59943;-81
2023/10/05 14:52:06;;;;;;;;;;;;;;;;;;109239;1252;60888;-81
2023/10/05 14:54:33;;;;;;;;;;;;;;;;;;109324;1252;59034;-81
2023/10/05 14:56:59;;;;;;;;;;;;;;;;;;109321;1252;58923;-82
2023/10/05 14:59:26;;;;;;;;;;;;;;;;;;109285;1252;59615;-81
2023/10/05 15:01:52;;;;;;;;;;;;;;;;;;109354;1251;59515;-81
2023/10/05 15:04:20;;;;;;;;;;;;;;;;;;109306;1251;58976;-81
2023/10/05 15:06:47;;;;;;;;;;;;;;;;;;109265;1252;59283;-81